sensor_id;sensor_type;location;lat;lon;timestamp;noise_LAeq;noise_LA_min;noise_LA_max;noise_LA01;noise_LA95
61095;Laerm;20450;49.074;9.158;2022-12-13T00:00:57;38.54;33.90;47.50;;
61095;Laerm;20450;49.074;9.158;2022-12-13T00:03:24;38.49;35.04;40.98;;
61095;Laerm;20450;49.074;9.158;2022-12-13T00:05:51;38.31;34.69;40.71;;
61095;Laerm;20450;49.074;9.158;2022-12-13T00:08:18;38.69;34.31;42.71;;
61095;Laerm;20450;49.074;9.158;2022-12-13T00:10:45;39.18;35.66;46.62;;
61095;Laerm;20450;49.074;9.158;2022-12-13T00:13:14;38.36;35.04;40.71;;
61095;Laerm;20450;49.074;9.158;2022-12-13T00:15:41;38.33;35.04;40.71;;
61095;Laerm;20450;49.074;9.158;2022-12-13T00:18:08;38.45;35.04;41.30;;
61095;Laerm;20450;49.074;9.158;2022-12-13T00:20:38;38.60;35.04;41.38;;
61095;Laerm;20450;49.074;9.158;2022-12-13T00:23:05;39.11;35.36;43.09;;
61095;Laerm;20450;49.074;9.158;2022-12-13T00:25:32;39.30;35.66;45.27;;
61095;Laerm;20450;49.074;9.158;2022-12-13T00:28:00;38.51;35.04;41.14;;
61095;Laerm;20450;49.074;9.158;2022-12-13T00:30:29;38.54;34.31;42.03;;
61095;Laerm;20450;49.074;9.158;2022-12-13T00:32:56;38.69;35.66;42.35;;
61095;Laerm;20450;49.074;9.158;2022-12-13T00:35:23;38.43;34.69;40.62;;
61095;Laerm;20450;49.074;9.158;2022-12-13T00:37:50;38.57;35.36;41.30;;
61095;Laerm;20450;49.074;9.158;2022-12-13T00:40:17;38.56;35.04;40.71;;
61095;Laerm;20450;49.074;9.158;2022-12-13T00:42:44;38.76;35.36;42.09;;
61095;Laerm;20450;49.074;9.158;2022-12-13T00:45:11;38.37;35.04;42.88;;
61095;Laerm;20450;49.074;9.158;2022-12-13T00:47:41;38.32;34.69;40.98;;
61095;Laerm;20450;49.074;9.158;2022-12-13T00:50:08;38.50;35.36;42.29;;
61095;Laerm;20450;49.074;9.158;2022-12-13T00:52:36;38.89;34.69;42.29;;
61095;Laerm;20450;49.074;9.158;2022-12-13T00:55:04;38.88;35.04;42.65;;
61095;Laerm;20450;49.074;9.158;2022-12-13T00:57:31;38.74;35.04;42.79;;
61095;Laerm;20450;49.074;9.158;2022-12-13T00:59:58;38.42;34.31;42.98;;
61095;Laerm;20450;49.074;9.158;2022-12-13T01:02:25;38.53;34.69;42.03;;
61095;Laerm;20450;49.074;9.158;2022-12-13T01:04:53;39.05;35.01;45.45;;
61095;Laerm;20450;49.074;9.158;2022-12-13T01:07:20;38.19;34.31;40.89;;
61095;Laerm;20450;49.074;9.158;2022-12-13T01:09:47;38.65;33.90;43.68;;
61095;Laerm;20450;49.074;9.158;2022-12-13T01:12:14;38.34;35.04;41.38;;
61095;Laerm;20450;49.074;9.158;2022-12-13T01:14:41;38.35;34.31;40.71;;
61095;Laerm;20450;49.074;9.158;2022-12-13T01:17:09;38.70;35.04;43.14;;
61095;Laerm;20450;49.074;9.158;2022-12-13T01:19:36;38.21;34.69;40.89;;
61095;Laerm;20450;49.074;9.158;2022-12-13T01:22:05;38.40;35.04;42.03;;
61095;Laerm;20450;49.074;9.158;2022-12-13T01:24:33;38.26;35.04;40.71;;
61095;Laerm;20450;49.074;9.158;2022-12-13T01:27:00;38.47;35.04;40.98;;
61095;Laerm;20450;49.074;9.158;2022-12-13T01:29:27;40.03;34.69;45.23;;
61095;Laerm;20450;49.074;9.158;2022-12-13T01:31:55;39.00;35.36;43.14;;
61095;Laerm;20450;49.074;9.158;2022-12-13T01:34:23;38.38;34.69;40.80;;
61095;Laerm;20450;49.074;9.158;2022-12-13T01:36:54;38.40;35.04;42.53;;
61095;Laerm;20450;49.074;9.158;2022-12-13T01:39:26;38.25;34.69;41.22;;
61095;Laerm;20450;49.074;9.158;2022-12-13T01:41:55;38.24;34.69;40.71;;
61095;Laerm;20450;49.074;9.158;2022-12-13T01:45:03;38.28;35.04;40.89;;
61095;Laerm;20450;49.074;9.158;2022-12-13T01:47:39;38.26;35.04;41.61;;
61095;Laerm;20450;49.074;9.158;2022-12-13T01:50:11;38.35;34.31;41.06;;
61095;Laerm;20450;49.074;9.158;2022-12-13T01:52:41;38.36;35.04;40.89;;
61095;Laerm;20450;49.074;9.158;2022-12-13T01:55:13;39.26;34.69;44.15;;
61095;Laerm;20450;49.074;9.158;2022-12-13T01:57:45;38.69;33.90;45.04;;
61095;Laerm;20450;49.074;9.158;2022-12-13T02:00:14;38.65;35.36;41.68;;
61095;Laerm;20450;49.074;9.158;2022-12-13T02:02:43;38.56;35.36;41.46;;
61095;Laerm;20450;49.074;9.158;2022-12-13T02:05:20;38.65;35.66;41.68;;
61095;Laerm;20450;49.074;9.158;2022-12-13T02:07:49;38.75;35.04;42.71;;
61095;Laerm;20450;49.074;9.158;2022-12-13T02:10:18;38.51;34.69;42.53;;
61095;Laerm;20450;49.074;9.158;2022-12-13T02:12:45;38.21;34.69;40.62;;
61095;Laerm;20450;49.074;9.158;2022-12-13T02:15:16;38.10;34.69;40.43;;
61095;Laerm;20450;49.074;9.158;2022-12-13T02:18:10;38.50;34.69;42.47;;
61095;Laerm;20450;49.074;9.158;2022-12-13T02:21:04;38.72;35.04;42.47;;
61095;Laerm;20450;49.074;9.158;2022-12-13T02:24:06;38.41;33.44;42.03;;
61095;Laerm;20450;49.074;9.158;2022-12-13T02:26:58;38.69;35.04;42.09;;
61095;Laerm;20450;49.074;9.158;2022-12-13T02:32:57;38.84;35.36;42.09;;
61095;Laerm;20450;49.074;9.158;2022-12-13T02:35:40;38.71;35.36;42.76;;
61095;Laerm;20450;49.074;9.158;2022-12-13T02:38:20;38.98;35.04;45.75;;
61095;Laerm;20450;49.074;9.158;2022-12-13T02:40:59;39.01;35.36;42.88;;
61095;Laerm;20450;49.074;9.158;2022-12-13T02:43:39;38.73;35.36;42.16;;
61095;Laerm;20450;49.074;9.158;2022-12-13T02:46:14;38.87;35.01;43.09;;
61095;Laerm;20450;49.074;9.158;2022-12-13T02:48:47;38.50;35.04;40.89;;
61095;Laerm;20450;49.074;9.158;2022-12-13T02:51:18;38.26;35.04;40.98;;
61095;Laerm;20450;49.074;9.158;2022-12-13T02:53:46;38.65;35.04;43.49;;
61095;Laerm;20450;49.074;9.158;2022-12-13T02:56:12;38.37;34.69;40.80;;
61095;Laerm;20450;49.074;9.158;2022-12-13T02:58:45;38.31;35.36;40.89;;
61095;Laerm;20450;49.074;9.158;2022-12-13T03:01:46;38.55;34.69;42.93;;
61095;Laerm;20450;49.074;9.158;2022-12-13T03:04:30;39.54;35.04;43.58;;
61095;Laerm;20450;49.074;9.158;2022-12-13T03:07:14;39.40;35.36;43.63;;
61095;Laerm;20450;49.074;9.158;2022-12-13T03:09:55;38.42;34.69;40.89;;
61095;Laerm;20450;49.074;9.158;2022-12-13T03:12:34;38.67;35.94;41.82;;
61095;Laerm;20450;49.074;9.158;2022-12-13T03:15:15;38.75;35.36;45.54;;
61095;Laerm;20450;49.074;9.158;2022-12-13T03:17:49;38.97;35.66;41.46;;
61095;Laerm;20450;49.074;9.158;2022-12-13T03:20:24;39.08;34.69;42.71;;
61095;Laerm;20450;49.074;9.158;2022-12-13T03:22:54;38.93;35.04;43.54;;
61095;Laerm;20450;49.074;9.158;2022-12-13T03:25:25;39.00;35.36;41.89;;
61095;Laerm;20450;49.074;9.158;2022-12-13T03:27:59;39.11;35.94;41.96;;
61095;Laerm;20450;49.074;9.158;2022-12-13T03:30:27;38.66;35.66;42.09;;
61095;Laerm;20450;49.074;9.158;2022-12-13T03:32:54;38.65;34.31;41.22;;
61095;Laerm;20450;49.074;9.158;2022-12-13T03:35:23;39.03;35.04;43.29;;
61095;Laerm;20450;49.074;9.158;2022-12-13T03:38:00;38.87;35.36;42.47;;
61095;Laerm;20450;49.074;9.158;2022-12-13T03:40:29;39.48;35.66;42.82;;
61095;Laerm;20450;49.074;9.158;2022-12-13T03:42:56;39.02;35.36;41.82;;
61095;Laerm;20450;49.074;9.158;2022-12-13T03:45:23;39.24;35.94;43.04;;
61095;Laerm;20450;49.074;9.158;2022-12-13T03:47:50;38.92;35.66;42.29;;
61095;Laerm;20450;49.074;9.158;2022-12-13T03:50:17;39.45;35.94;62.03;;
61095;Laerm;20450;49.074;9.158;2022-12-13T03:52:59;39.07;35.04;42.03;;
61095;Laerm;20450;49.074;9.158;2022-12-13T03:55:27;39.11;35.36;42.09;;
61095;Laerm;20450;49.074;9.158;2022-12-13T03:57:55;39.09;35.36;42.58;;
61095;Laerm;20450;49.074;9.158;2022-12-13T04:00:22;38.83;35.04;41.38;;
61095;Laerm;20450;49.074;9.158;2022-12-13T04:02:49;39.54;35.66;44.69;;
61095;Laerm;20450;49.074;9.158;2022-12-13T04:05:16;39.56;35.36;43.77;;
61095;Laerm;20450;49.074;9.158;2022-12-13T04:07:44;39.77;35.66;44.94;;
61095;Laerm;20450;49.074;9.158;2022-12-13T04:10:15;39.59;35.04;43.29;;
61095;Laerm;20450;49.074;9.158;2022-12-13T04:12:53;39.73;35.66;46.30;;
61095;Laerm;20450;49.074;9.158;2022-12-13T04:15:26;39.99;36.20;44.43;;
61095;Laerm;20450;49.074;9.158;2022-12-13T04:17:53;39.20;35.66;41.96;;
61095;Laerm;20450;49.074;9.158;2022-12-13T04:20:20;39.62;35.66;43.81;;
61095;Laerm;20450;49.074;9.158;2022-12-13T04:22:47;40.39;35.66;45.77;;
61095;Laerm;20450;49.074;9.158;2022-12-13T04:25:16;40.30;36.45;44.62;;
61095;Laerm;20450;49.074;9.158;2022-12-13T04:27:44;40.20;36.45;45.30;;
61095;Laerm;20450;49.074;9.158;2022-12-13T04:30:11;39.44;36.45;42.09;;
61095;Laerm;20450;49.074;9.158;2022-12-13T04:32:38;39.59;35.66;43.19;;
61095;Laerm;20450;49.074;9.158;2022-12-13T04:35:06;39.61;36.20;43.04;;
61095;Laerm;20450;49.074;9.158;2022-12-13T04:37:33;39.92;35.59;44.54;;
61095;Laerm;20450;49.074;9.158;2022-12-13T04:39:59;40.73;36.69;44.47;;
61095;Laerm;20450;49.074;9.158;2022-12-13T04:42:28;40.20;36.69;52.46;;
61095;Laerm;20450;49.074;9.158;2022-12-13T04:44:55;40.35;36.45;46.62;;
61095;Laerm;20450;49.074;9.158;2022-12-13T04:47:22;40.65;36.69;43.99;;
61095;Laerm;20450;49.074;9.158;2022-12-13T04:49:49;39.76;36.20;48.20;;
61095;Laerm;20450;49.074;9.158;2022-12-13T04:52:16;39.77;36.69;42.09;;
61095;Laerm;20450;49.074;9.158;2022-12-13T04:54:50;39.89;35.94;43.44;;
61095;Laerm;20450;49.074;9.158;2022-12-13T04:57:22;40.17;36.20;44.51;;
61095;Laerm;20450;49.074;9.158;2022-12-13T04:59:52;40.64;35.94;44.47;;
61095;Laerm;20450;49.074;9.158;2022-12-13T05:02:19;39.99;36.69;47.48;;
61095;Laerm;20450;49.074;9.158;2022-12-13T05:04:50;40.29;36.69;45.30;;
61095;Laerm;20450;49.074;9.158;2022-12-13T05:07:22;39.54;36.20;42.22;;
61095;Laerm;20450;49.074;9.158;2022-12-13T05:09:49;40.21;36.69;49.60;;
61095;Laerm;20450;49.074;9.158;2022-12-13T05:12:17;40.61;36.45;49.32;;
61095;Laerm;20450;49.074;9.158;2022-12-13T05:14:49;40.61;36.20;44.73;;
61095;Laerm;20450;49.074;9.158;2022-12-13T05:17:18;40.38;36.91;45.51;;
61095;Laerm;20450;49.074;9.158;2022-12-13T05:19:45;40.25;36.45;50.15;;
61095;Laerm;20450;49.074;9.158;2022-12-13T05:22:12;40.53;37.32;48.85;;
61095;Laerm;20450;49.074;9.158;2022-12-13T05:24:45;41.12;36.91;48.45;;
61095;Laerm;20450;49.074;9.158;2022-12-13T05:27:12;41.06;37.52;48.64;;
61095;Laerm;20450;49.074;9.158;2022-12-13T05:29:52;40.85;37.32;46.61;;
61095;Laerm;20450;49.074;9.158;2022-12-13T05:32:32;40.31;37.12;44.35;;
61095;Laerm;20450;49.074;9.158;2022-12-13T05:35:11;41.28;37.12;48.43;;
61095;Laerm;20450;49.074;9.158;2022-12-13T05:37:38;40.87;36.45;44.82;;
61095;Laerm;20450;49.074;9.158;2022-12-13T05:40:09;40.64;36.69;54.18;;
61095;Laerm;20450;49.074;9.158;2022-12-13T05:42:36;40.92;37.12;50.40;;
61095;Laerm;20450;49.074;9.158;2022-12-13T05:45:06;40.63;36.91;44.11;;
61095;Laerm;20450;49.074;9.158;2022-12-13T05:47:34;40.71;37.12;48.92;;
61095;Laerm;20450;49.074;9.158;2022-12-13T05:50:03;40.77;37.52;45.45;;
61095;Laerm;20450;49.074;9.158;2022-12-13T05:52:30;40.59;36.45;45.51;;
61095;Laerm;20450;49.074;9.158;2022-12-13T05:54:57;40.99;37.70;48.20;;
61095;Laerm;20450;49.074;9.158;2022-12-13T05:57:27;40.89;37.70;48.26;;
61095;Laerm;20450;49.074;9.158;2022-12-13T05:59:55;40.91;37.12;46.73;;
61095;Laerm;20450;49.074;9.158;2022-12-13T06:02:22;41.13;37.88;44.07;;
61095;Laerm;20450;49.074;9.158;2022-12-13T06:04:51;41.49;37.52;56.62;;
61095;Laerm;20450;49.074;9.158;2022-12-13T06:07:18;40.65;37.52;46.02;;
61095;Laerm;20450;49.074;9.158;2022-12-13T06:09:44;40.28;36.91;45.01;;
61095;Laerm;20450;49.074;9.158;2022-12-13T06:12:11;40.94;36.91;45.07;;
61095;Laerm;20450;49.074;9.158;2022-12-13T06:14:58;40.74;36.69;45.11;;
61095;Laerm;20450;49.074;9.158;2022-12-13T06:17:30;40.51;37.32;46.50;;
61095;Laerm;20450;49.074;9.158;2022-12-13T06:20:02;41.11;36.91;47.84;;
61095;Laerm;20450;49.074;9.158;2022-12-13T06:22:49;41.15;37.70;55.68;;
61095;Laerm;20450;49.074;9.158;2022-12-13T06:25:16;41.54;37.52;49.69;;
61095;Laerm;20450;49.074;9.158;2022-12-13T06:27:57;40.65;37.52;45.60;;
61095;Laerm;20450;49.074;9.158;2022-12-13T06:30:26;40.71;36.69;45.11;;
61095;Laerm;20450;49.074;9.158;2022-12-13T06:32:53;41.76;37.70;57.16;;
61095;Laerm;20450;49.074;9.158;2022-12-13T06:35:22;41.10;38.21;46.62;;
61095;Laerm;20450;49.074;9.158;2022-12-13T06:37:55;41.22;37.17;55.92;;
61095;Laerm;20450;49.074;9.158;2022-12-13T06:40:27;41.12;37.52;45.63;;
61095;Laerm;20450;49.074;9.158;2022-12-13T06:42:54;40.70;37.32;47.02;;
61095;Laerm;20450;49.074;9.158;2022-12-13T06:45:23;41.70;36.69;48.26;;
61095;Laerm;20450;49.074;9.158;2022-12-13T06:47:49;41.66;38.02;53.69;;
61095;Laerm;20450;49.074;9.158;2022-12-13T06:50:16;41.14;37.88;47.14;;
61095;Laerm;20450;49.074;9.158;2022-12-13T06:52:46;41.55;37.88;48.74;;
61095;Laerm;20450;49.074;9.158;2022-12-13T06:55:13;41.34;37.70;46.23;;
61095;Laerm;20450;49.074;9.158;2022-12-13T06:57:49;41.27;38.05;47.68;;
61095;Laerm;20450;49.074;9.158;2022-12-13T07:00:17;41.19;37.70;52.66;;
61095;Laerm;20450;49.074;9.158;2022-12-13T07:02:54;41.38;37.88;48.15;;
61095;Laerm;20450;49.074;9.158;2022-12-13T07:05:22;41.54;37.88;51.16;;
61095;Laerm;20450;49.074;9.158;2022-12-13T07:07:50;41.03;37.88;43.58;;
61095;Laerm;20450;49.074;9.158;2022-12-13T07:10:18;41.35;37.88;46.13;;
61095;Laerm;20450;49.074;9.158;2022-12-13T07:12:48;40.83;37.12;46.65;;
61095;Laerm;20450;49.074;9.158;2022-12-13T07:15:15;41.01;38.05;45.54;;
61095;Laerm;20450;49.074;9.158;2022-12-13T07:17:43;41.27;37.70;47.63;;
61095;Laerm;20450;49.074;9.158;2022-12-13T07:20:11;41.32;37.88;44.90;;
61095;Laerm;20450;49.074;9.158;2022-12-13T07:22:38;41.08;37.32;44.73;;
61095;Laerm;20450;49.074;9.158;2022-12-13T07:25:15;41.79;38.52;53.00;;
61095;Laerm;20450;49.074;9.158;2022-12-13T07:27:57;42.02;39.58;50.33;;
61095;Laerm;20450;49.074;9.158;2022-12-13T07:30:29;41.64;38.05;48.99;;
61095;Laerm;20450;49.074;9.158;2022-12-13T07:32:56;42.08;38.37;48.73;;
61095;Laerm;20450;49.074;9.158;2022-12-13T07:35:22;41.48;38.21;53.22;;
61095;Laerm;20450;49.074;9.158;2022-12-13T07:37:49;41.63;38.37;44.65;;
61095;Laerm;20450;49.074;9.158;2022-12-13T07:40:17;41.87;38.37;58.78;;
61095;Laerm;20450;49.074;9.158;2022-12-13T07:42:49;41.58;38.37;47.24;;
61095;Laerm;20450;49.074;9.158;2022-12-13T07:45:17;41.85;38.05;53.81;;
61095;Laerm;20450;49.074;9.158;2022-12-13T07:47:44;42.12;39.08;52.53;;
61095;Laerm;20450;49.074;9.158;2022-12-13T07:50:12;41.86;37.88;52.98;;
61095;Laerm;20450;49.074;9.158;2022-12-13T07:52:51;42.73;38.81;55.09;;
61095;Laerm;20450;49.074;9.158;2022-12-13T07:55:20;42.65;38.52;53.59;;
61095;Laerm;20450;49.074;9.158;2022-12-13T07:58:05;41.99;38.05;50.32;;
61095;Laerm;20450;49.074;9.158;2022-12-13T08:00:33;42.18;38.21;50.72;;
61095;Laerm;20450;49.074;9.158;2022-12-13T08:03:00;41.96;38.21;51.93;;
61095;Laerm;20450;49.074;9.158;2022-12-13T08:05:27;41.92;37.70;53.73;;
61095;Laerm;20450;49.074;9.158;2022-12-13T08:08:21;41.60;38.37;49.89;;
61095;Laerm;20450;49.074;9.158;2022-12-13T08:11:02;42.32;38.05;49.02;;
61095;Laerm;20450;49.074;9.158;2022-12-13T08:13:30;42.62;38.05;58.86;;
61095;Laerm;20450;49.074;9.158;2022-12-13T08:15:58;41.75;37.52;49.65;;
61095;Laerm;20450;49.074;9.158;2022-12-13T08:18:25;42.60;38.52;59.26;;
61095;Laerm;20450;49.074;9.158;2022-12-13T08:20:57;42.19;38.05;50.92;;
61095;Laerm;20450;49.074;9.158;2022-12-13T08:23:23;42.32;38.05;57.29;;
61095;Laerm;20450;49.074;9.158;2022-12-13T08:25:51;42.37;37.70;51.69;;
61095;Laerm;20450;49.074;9.158;2022-12-13T08:28:22;41.96;38.52;51.64;;
61095;Laerm;20450;49.074;9.158;2022-12-13T08:30:50;41.81;38.21;50.96;;
61095;Laerm;20450;49.074;9.158;2022-12-13T08:33:19;42.05;38.81;51.66;;
61095;Laerm;20450;49.074;9.158;2022-12-13T08:35:47;42.15;38.21;47.08;;
61095;Laerm;20450;49.074;9.158;2022-12-13T08:38:14;40.89;36.91;43.44;;
61095;Laerm;20450;49.074;9.158;2022-12-13T08:40:50;41.76;38.05;47.34;;
61095;Laerm;20450;49.074;9.158;2022-12-13T08:43:17;41.79;38.05;50.18;;
61095;Laerm;20450;49.074;9.158;2022-12-13T08:45:53;41.77;38.37;50.14;;
61095;Laerm;20450;49.074;9.158;2022-12-13T08:48:27;41.66;37.88;53.64;;
61095;Laerm;20450;49.074;9.158;2022-12-13T08:50:59;42.11;36.91;47.76;;
61095;Laerm;20450;49.074;9.158;2022-12-13T08:53:28;41.97;38.52;50.77;;
61095;Laerm;20450;49.074;9.158;2022-12-13T08:56:11;41.30;37.88;55.69;;
61095;Laerm;20450;49.074;9.158;2022-12-13T08:58:38;41.49;38.37;44.27;;
61095;Laerm;20450;49.074;9.158;2022-12-13T09:01:08;41.71;38.37;46.43;;
61095;Laerm;20450;49.074;9.158;2022-12-13T09:03:35;42.22;38.37;52.15;;
61095;Laerm;20450;49.074;9.158;2022-12-13T09:06:08;42.36;38.95;51.13;;
61095;Laerm;20450;49.074;9.158;2022-12-13T09:08:35;41.12;38.05;52.10;;
61095;Laerm;20450;49.074;9.158;2022-12-13T09:11:04;41.79;38.21;45.54;;
61095;Laerm;20450;49.074;9.158;2022-12-13T09:13:47;41.05;37.88;45.97;;
61095;Laerm;20450;49.074;9.158;2022-12-13T09:16:18;41.76;38.67;49.88;;
61095;Laerm;20450;49.074;9.158;2022-12-13T09:18:50;42.59;38.95;60.57;;
61095;Laerm;20450;49.074;9.158;2022-12-13T09:21:22;42.39;39.46;50.82;;
61095;Laerm;20450;49.074;9.158;2022-12-13T09:23:58;41.94;37.88;50.44;;
61095;Laerm;20450;49.074;9.158;2022-12-13T09:26:28;42.09;38.95;49.23;;
61095;Laerm;20450;49.074;9.158;2022-12-13T09:29:04;41.21;38.37;48.34;;
61095;Laerm;20450;49.074;9.158;2022-12-13T09:31:38;41.67;39.08;61.15;;
61095;Laerm;20450;49.074;9.158;2022-12-13T09:34:06;42.36;38.81;55.12;;
61095;Laerm;20450;49.074;9.158;2022-12-13T09:36:33;42.60;40.23;50.41;;
61095;Laerm;20450;49.074;9.158;2022-12-13T09:39:00;42.15;39.34;51.37;;
61095;Laerm;20450;49.074;9.158;2022-12-13T09:41:33;42.93;39.46;53.00;;
61095;Laerm;20450;49.074;9.158;2022-12-13T09:44:15;42.70;40.03;49.44;;
61095;Laerm;20450;49.074;9.158;2022-12-13T09:47:11;44.81;39.46;63.04;;
61095;Laerm;20450;49.074;9.158;2022-12-13T09:49:43;43.17;40.80;54.68;;
61095;Laerm;20450;49.074;9.158;2022-12-13T09:52:22;44.46;40.13;59.31;;
61095;Laerm;20450;49.074;9.158;2022-12-13T09:54:53;46.45;39.58;59.36;;
61095;Laerm;20450;49.074;9.158;2022-12-13T09:57:26;42.52;38.67;52.86;;
61095;Laerm;20450;49.074;9.158;2022-12-13T10:00:03;43.00;39.70;55.88;;
61095;Laerm;20450;49.074;9.158;2022-12-13T10:02:43;42.17;39.34;48.61;;
61095;Laerm;20450;49.074;9.158;2022-12-13T10:05:18;42.94;39.92;52.78;;
61095;Laerm;20450;49.074;9.158;2022-12-13T10:07:53;42.39;39.21;52.09;;
61095;Laerm;20450;49.074;9.158;2022-12-13T10:10:24;43.05;39.34;55.39;;
61095;Laerm;20450;49.074;9.158;2022-12-13T10:13:11;42.38;39.58;55.62;;
61095;Laerm;20450;49.074;9.158;2022-12-13T10:15:48;41.98;38.81;48.40;;
61095;Laerm;20450;49.074;9.158;2022-12-13T10:18:33;41.99;38.81;45.23;;
61095;Laerm;20450;49.074;9.158;2022-12-13T10:21:08;42.12;38.81;53.92;;
61095;Laerm;20450;49.074;9.158;2022-12-13T10:23:35;42.43;39.21;49.33;;
61095;Laerm;20450;49.074;9.158;2022-12-13T10:26:23;42.71;39.34;52.44;;
61095;Laerm;20450;49.074;9.158;2022-12-13T10:29:02;44.94;39.92;68.13;;
61095;Laerm;20450;49.074;9.158;2022-12-13T10:31:39;42.40;39.81;47.44;;
61095;Laerm;20450;49.074;9.158;2022-12-13T10:34:21;46.41;39.81;61.77;;
61095;Laerm;20450;49.074;9.158;2022-12-13T10:36:50;42.30;39.70;48.54;;
61095;Laerm;20450;49.074;9.158;2022-12-13T10:39:35;42.24;38.95;46.55;;
61095;Laerm;20450;49.074;9.158;2022-12-13T10:42:05;42.58;39.70;48.76;;
61095;Laerm;20450;49.074;9.158;2022-12-13T10:44:32;54.62;40.53;64.54;;
61095;Laerm;20450;49.074;9.158;2022-12-13T10:47:11;43.66;39.81;51.00;;
61095;Laerm;20450;49.074;9.158;2022-12-13T10:49:51;42.56;39.70;47.70;;
61095;Laerm;20450;49.074;9.158;2022-12-13T10:52:29;42.24;39.21;50.30;;
61095;Laerm;20450;49.074;9.158;2022-12-13T10:55:00;41.95;39.34;52.29;;
61095;Laerm;20450;49.074;9.158;2022-12-13T10:57:29;41.86;39.21;47.93;;
61095;Laerm;20450;49.074;9.158;2022-12-13T10:59:56;42.53;39.34;51.91;;
61095;Laerm;20450;49.074;9.158;2022-12-13T11:02:34;41.67;38.81;44.15;;
61095;Laerm;20450;49.074;9.158;2022-12-13T11:05:34;42.99;39.08;60.50;;
61095;Laerm;20450;49.074;9.158;2022-12-13T11:08:14;41.96;39.08;51.61;;
61095;Laerm;20450;49.074;9.158;2022-12-13T11:10:42;41.26;38.21;55.43;;
61095;Laerm;20450;49.074;9.158;2022-12-13T11:13:26;41.67;38.95;47.06;;
61095;Laerm;20450;49.074;9.158;2022-12-13T11:15:55;41.90;38.95;54.18;;
61095;Laerm;20450;49.074;9.158;2022-12-13T11:18:25;41.93;38.81;47.40;;
61095;Laerm;20450;49.074;9.158;2022-12-13T11:20:59;41.56;38.37;45.30;;
61095;Laerm;20450;49.074;9.158;2022-12-13T11:23:31;42.16;39.58;49.07;;
61095;Laerm;20450;49.074;9.158;2022-12-13T11:26:07;41.88;39.46;45.23;;
61095;Laerm;20450;49.074;9.158;2022-12-13T11:28:59;41.70;38.95;45.80;;
61095;Laerm;20450;49.074;9.158;2022-12-13T11:31:40;42.02;38.95;48.07;;
61095;Laerm;20450;49.074;9.158;2022-12-13T11:34:23;45.59;39.08;59.79;;
61095;Laerm;20450;49.074;9.158;2022-12-13T11:37:09;43.84;39.08;57.74;;
61095;Laerm;20450;49.074;9.158;2022-12-13T11:39:46;42.15;39.08;47.04;;
61095;Laerm;20450;49.074;9.158;2022-12-13T11:42:26;42.27;38.67;48.49;;
61095;Laerm;20450;49.074;9.158;2022-12-13T11:45:05;41.68;38.87;45.80;;
61095;Laerm;20450;49.074;9.158;2022-12-13T11:47:41;42.13;39.34;48.77;;
61095;Laerm;20450;49.074;9.158;2022-12-13T11:50:16;41.78;38.37;49.04;;
61095;Laerm;20450;49.074;9.158;2022-12-13T11:53:20;42.49;39.46;45.54;;
61095;Laerm;20450;49.074;9.158;2022-12-13T11:55:55;42.50;38.37;65.22;;
61095;Laerm;20450;49.074;9.158;2022-12-13T11:58:32;42.14;38.67;50.02;;
61095;Laerm;20450;49.074;9.158;2022-12-13T12:01:32;42.10;38.99;53.25;;
61095;Laerm;20450;49.074;9.158;2022-12-13T12:04:18;41.90;38.95;48.36;;
61095;Laerm;20450;49.074;9.158;2022-12-13T12:06:56;41.59;38.81;53.79;;
61095;Laerm;20450;49.074;9.158;2022-12-13T12:09:56;41.61;38.81;50.61;;
61095;Laerm;20450;49.074;9.158;2022-12-13T12:12:32;42.15;38.67;54.36;;
61095;Laerm;20450;49.074;9.158;2022-12-13T12:15:10;41.62;39.46;44.07;;
61095;Laerm;20450;49.074;9.158;2022-12-13T12:17:43;42.20;39.58;51.16;;
61095;Laerm;20450;49.074;9.158;2022-12-13T12:20:13;41.87;38.95;49.21;;
61095;Laerm;20450;49.074;9.158;2022-12-13T12:23:04;42.06;39.34;47.20;;
61095;Laerm;20450;49.074;9.158;2022-12-13T12:25:44;41.77;38.52;46.32;;
61095;Laerm;20450;49.074;9.158;2022-12-13T12:28:27;41.57;38.67;49.79;;
61095;Laerm;20450;49.074;9.158;2022-12-13T12:31:11;42.27;39.21;54.21;;
61095;Laerm;20450;49.074;9.158;2022-12-13T12:33:50;41.81;38.05;51.73;;
61095;Laerm;20450;49.074;9.158;2022-12-13T12:36:38;42.07;39.08;50.64;;
61095;Laerm;20450;49.074;9.158;2022-12-13T12:39:32;42.26;38.67;46.13;;
61095;Laerm;20450;49.074;9.158;2022-12-13T12:42:29;41.64;37.88;47.50;;
61095;Laerm;20450;49.074;9.158;2022-12-13T12:45:49;41.64;38.95;45.94;;
61095;Laerm;20450;49.074;9.158;2022-12-13T12:48:57;42.01;38.95;51.31;;
61095;Laerm;20450;49.074;9.158;2022-12-13T12:51:38;41.87;38.81;48.13;;
61095;Laerm;20450;49.074;9.158;2022-12-13T12:54:36;42.03;38.81;51.25;;
61095;Laerm;20450;49.074;9.158;2022-12-13T12:57:21;41.82;38.52;46.55;;
61095;Laerm;20450;49.074;9.158;2022-12-13T13:00:02;42.98;40.33;47.74;;
61095;Laerm;20450;49.074;9.158;2022-12-13T13:02:42;43.24;40.03;48.85;;
61095;Laerm;20450;49.074;9.158;2022-12-13T13:05:20;41.48;38.95;44.76;;
61095;Laerm;20450;49.074;9.158;2022-12-13T13:07:59;42.26;39.34;52.70;;
61095;Laerm;20450;49.074;9.158;2022-12-13T13:10:29;42.20;39.58;50.73;;
61095;Laerm;20450;49.074;9.158;2022-12-13T13:12:58;42.59;39.34;50.10;;
61095;Laerm;20450;49.074;9.158;2022-12-13T13:15:56;41.67;38.37;45.14;;
61095;Laerm;20450;49.074;9.158;2022-12-13T13:18:49;42.05;38.52;49.87;;
61095;Laerm;20450;49.074;9.158;2022-12-13T13:21:32;41.85;38.52;46.20;;
61095;Laerm;20450;49.074;9.158;2022-12-13T13:24:23;42.39;38.67;50.51;;
61095;Laerm;20450;49.074;9.158;2022-12-13T13:26:53;42.90;39.81;49.16;;
61095;Laerm;20450;49.074;9.158;2022-12-13T13:29:35;41.82;38.67;48.64;;
61095;Laerm;20450;49.074;9.158;2022-12-13T13:32:29;41.58;38.52;46.80;;
61095;Laerm;20450;49.074;9.158;2022-12-13T13:35:50;42.78;39.21;48.52;;
61095;Laerm;20450;49.074;9.158;2022-12-13T13:38:48;42.27;37.52;46.45;;
61095;Laerm;20450;49.074;9.158;2022-12-13T13:44:55;41.32;37.52;45.98;;
61095;Laerm;20450;49.074;9.158;2022-12-13T13:47:40;41.91;37.70;50.41;;
61095;Laerm;20450;49.074;9.158;2022-12-13T13:54:11;41.46;38.37;47.12;;
61095;Laerm;20450;49.074;9.158;2022-12-13T14:00:47;41.73;38.52;51.94;;
61095;Laerm;20450;49.074;9.158;2022-12-13T14:07:21;41.89;38.81;49.21;;
61095;Laerm;20450;49.074;9.158;2022-12-13T14:10:22;41.81;38.52;58.79;;
61095;Laerm;20450;49.074;9.158;2022-12-13T14:13:44;41.62;38.21;53.54;;
61095;Laerm;20450;49.074;9.158;2022-12-13T14:20:42;42.53;38.37;;;
61095;Laerm;20450;49.074;9.158;2022-12-13T14:23:55;41.61;38.81;48.10;;
61095;Laerm;20450;49.074;9.158;2022-12-13T14:26:42;41.90;37.70;48.85;;
61095;Laerm;20450;49.074;9.158;2022-12-13T14:29:24;41.95;38.81;47.81;;
61095;Laerm;20450;49.074;9.158;2022-12-13T14:31:54;41.63;37.70;45.14;;
61095;Laerm;20450;49.074;9.158;2022-12-13T14:34:24;41.44;38.95;45.07;;
61095;Laerm;20450;49.074;9.158;2022-12-13T14:36:59;42.44;38.81;48.64;;
61095;Laerm;20450;49.074;9.158;2022-12-13T14:39:28;41.59;38.21;46.59;;
61095;Laerm;20450;49.074;9.158;2022-12-13T14:41:58;41.65;38.52;46.82;;
61095;Laerm;20450;49.074;9.158;2022-12-13T14:44:29;41.79;38.18;44.58;;
61095;Laerm;20450;49.074;9.158;2022-12-13T14:46:59;41.86;38.52;47.10;;